Historyczne dane pomiarowe

Dodano dane terminowe – wersja testowa.

Dane z okresu 1951-2019

Wersja bazy: 1.34 [2019-03-16, lista zmian], aktualizacja planowana na 2019-04-15

Dane meteo z obszaru Polski uzyskane na podstawie danych udostępnionych przez Instytut Meteorologii i Gospodarki Wodnej – Państwowy Instytut Badawczy.

 

Wybierz Datę:    

       

TemperaturaWilgotnośćWiatrCiśnienieOpadyŚniegCzas trwania zjawisk
 Stacja t tx tn tng RH VA  wxwx mslp ppp RRR   cm mm wxwxwxwxwxwxwx
2019-07-25 22.8 29.5 14.4 12.8--- 1.7---- 0.0------------
2019-07-24 21.8 25.7 17.8 17.5--- 1.3---- 0.0------------
2019-07-23 19.2 22.7 16.1 15.5--- 1.0---- 0.0------------
2019-07-22 20.7 26.0 15.0 14.1--- 2.7---- 0.0------------
2019-07-21 22.6 30.0 16.0 15.1--- 2.7---- 1.0------------
2019-07-20 23.2 28.6 17.3 16.9--- 1.3---- 0.0------------
2019-07-19 20.6 28.1 9.0 8.2--- 1.7---- 0.4------------
2019-07-18 18.0 24.6 10.0 8.7--- 1.7---- 0.0------------
2019-07-17 16.9 20.8 13.0 12.6--- 2.7---- 1.8------------
2019-07-16 16.2 22.5 11.8 9.9--- 3.3---- 1.4------------
2019-07-15 18.7 24.7 10.0 8.4--- 2.3---- 0.0------------
2019-07-14 18.8 24.0 13.8 12.9--- 2.3---- 0.0------------
2019-07-13 18.1 24.7 12.3 11.2--- 1.7---- 0.0------------
2019-07-12 18.2 25.2 9.3 8.5--- 1.3---- 0.0------------
2019-07-11 16.0 21.3 9.8 8.8--- 2.3---- 0.0------------
2019-07-10 16.1 19.6 12.8 12.6--- 3.0---- 1.2------------
2019-07-09 15.0 20.2 11.2 10.3--- 4.7---- 10.5------------
2019-07-08 15.9 19.7 13.2 13.4--- 4.3---- 0.0------------
2019-07-07 17.3 20.6 15.0 14.3--- 4.3---- 0.0------------
2019-07-06 16.0 20.2 10.7 9.3--- 2.3---- 2.5------------
2019-07-05 16.8 19.2 13.5 12.5--- 3.7---- 0.9------------
2019-07-04 16.5 21.3 9.7 8.3--- 3.7---- 0.0------------
2019-07-03 16.6 21.0 11.4 10.5--- 3.7---- 0.0------------
2019-07-02 20.8 26.3 16.5 16.0--- 4.3---- 0.0------------
2019-07-01 26.4 33.4 22.2 21.1--- 2.7---- 0.2------------
2019-06-30 26.6 35.2 15.6 14.5--- 2.3---- 0.0------------
2019-06-29 20.9 28.0 11.5 10.2--- 3.0---- 0.0------------
2019-06-28 19.0 24.6 13.5 12.6--- 3.3---- 0.0------------
2019-06-27 23.3 33.5 19.6 20.0--- 4.3---- 0.0------------
2019-06-26 29.1 35.8 21.1 20.3--- 3.3---- 0.0------------
2019-06-25 24.4 31.4 14.4 12.9--- 2.3---- 0.0------------
2019-06-24 22.6 29.4 14.3 12.7--- 2.0---- 0.0------------
2019-06-23 20.6 25.8 14.2 13.2--- 2.0---- 0.0------------
2019-06-22 21.3 26.2 16.3 15.5--- 2.7---- 0.0------------
2019-06-21 23.3 29.4 18.0 16.9--- 1.3---- 0.0------------
2019-06-20 25.0 30.6 18.3 17.3--- 1.7---- 0.7------------
2019-06-19 22.3 29.0 16.1 14.9--- 2.0---- 0.0------------
2019-06-18 21.0 27.2 13.2 11.5--- 1.7---- 0.0------------
2019-06-17 19.6 23.8 14.9 14.5--- 2.3---- 0.0------------
2019-06-16 24.2 28.9 21.9 21.8--- 2.7---- 0.0------------
2019-06-15 25.4 31.6 18.7 18.1--- 2.7---- 0.0------------
2019-06-14 23.1 28.7 17.6 17.3--- 2.0---- 0.0------------
2019-06-13 26.6 34.1 21.3 19.8--- 2.3---- 5.2------------
2019-06-12 27.4 34.2 19.5 18.5--- 2.3---- 0.0------------
2019-06-11 27.0 33.8 18.5 17.3--- 2.0---- 0.0------------
2019-06-10 22.2 30.4 11.3 9.6--- 3.0---- 0.0------------
2019-06-09 20.7 26.0 14.5 13.0--- 1.7---- 0.0------------
2019-06-08 22.5 28.8 15.7 14.5--- 2.7---- 0.0------------
2019-06-07 22.6 28.7 15.7 15.0--- 2.0---- 0.0------------
2019-06-06 22.8 28.5 17.0 16.1--- 3.0---- 0.0------------
2019-06-05 23.0 28.9 15.5 14.1--- 2.7---- 0.0------------
2019-06-04 22.4 29.7 12.3 11.0--- 1.3---- 0.0------------
2019-06-03 20.8 27.3 12.4 10.9--- 2.0---- 0.0------------
2019-06-02 21.2 27.1 13.1 11.9--- 1.7---- 0.1------------
2019-06-01 19.5 24.3 13.3 11.4--- 1.7---- 0.0------------
2019-05-31 16.5 23.7 6.5 5.1--- 2.0---- 0.0------------
2019-05-30 13.4 19.7 4.7 3.4--- 1.7---- 0.0------------
2019-05-29 13.3 16.8 10.5 10.4--- 3.3---- 0.2------------
2019-05-28 18.4 24.5 15.8 15.5--- 1.3---- 7.6------------
2019-05-27 20.5 26.1 13.7 12.5--- 3.3---- 1.8------------
111.1 ms

 

Źródłem pochodzenia danych jest Instytut Meteorologii i Gospodarki Wodnej – Państwowy Instytut Badawczy. Dane Instytutu Meteorologii i Gospodarki Wodnej – Państwowego Instytutu Badawczego zostały przetworzone.

Dane źródłowe można odnaleźć na stronie https://dane.imgw.pl